sensor_id;sensor_type;location;lat;lon;timestamp;temperature;humidity
51215;DHT22;41093;47.444;19.134;2022-09-09T00:02:21;18.10;90.50
51215;DHT22;41093;47.444;19.134;2022-09-09T00:23:38;17.60;90.50
51215;DHT22;41093;47.444;19.134;2022-09-09T00:26:35;17.60;90.70
51215;DHT22;41093;47.444;19.134;2022-09-09T00:31:36;17.50;90.70
51215;DHT22;41093;47.444;19.134;2022-09-09T00:34:18;17.50;90.50
51215;DHT22;41093;47.444;19.134;2022-09-09T00:36:49;17.50;90.30
51215;DHT22;41093;47.444;19.134;2022-09-09T00:39:38;17.50;90.30
51215;DHT22;41093;47.444;19.134;2022-09-09T00:42:18;17.40;90.10
51215;DHT22;41093;47.444;19.134;2022-09-09T00:48:10;17.40;90.40
51215;DHT22;41093;47.444;19.134;2022-09-09T00:50:53;17.40;90.60
51215;DHT22;41093;47.444;19.134;2022-09-09T00:56:18;17.40;90.80
51215;DHT22;41093;47.444;19.134;2022-09-09T00:59:28;17.40;91.10
51215;DHT22;41093;47.444;19.134;2022-09-09T01:01:59;17.40;91.10
51215;DHT22;41093;47.444;19.134;2022-09-09T01:04:34;17.40;91.20
51215;DHT22;41093;47.444;19.134;2022-09-09T01:07:21;17.40;91.20
51215;DHT22;41093;47.444;19.134;2022-09-09T01:09:56;17.30;91.20
51215;DHT22;41093;47.444;19.134;2022-09-09T01:12:38;17.30;91.30
51215;DHT22;41093;47.444;19.134;2022-09-09T01:15:22;17.30;91.50
51215;DHT22;41093;47.444;19.134;2022-09-09T01:17:52;17.30;91.50
51215;DHT22;41093;47.444;19.134;2022-09-09T01:20:27;17.30;91.60
51215;DHT22;41093;47.444;19.134;2022-09-09T01:23:16;17.20;91.60
51215;DHT22;41093;47.444;19.134;2022-09-09T01:26:24;17.20;91.60
51215;DHT22;41093;47.444;19.134;2022-09-09T01:28:51;17.20;91.70
51215;DHT22;41093;47.444;19.134;2022-09-09T01:31:26;17.20;91.80
51215;DHT22;41093;47.444;19.134;2022-09-09T01:33:53;17.20;91.80
51215;DHT22;41093;47.444;19.134;2022-09-09T01:36:26;17.20;91.80
51215;DHT22;41093;47.444;19.134;2022-09-09T01:38:55;17.20;91.80
51215;DHT22;41093;47.444;19.134;2022-09-09T01:41:21;17.10;91.70
51215;DHT22;41093;47.444;19.134;2022-09-09T01:43:47;17.10;91.80
51215;DHT22;41093;47.444;19.134;2022-09-09T01:46:13;17.20;91.90
51215;DHT22;41093;47.444;19.134;2022-09-09T01:48:41;17.20;91.90
51215;DHT22;41093;47.444;19.134;2022-09-09T01:51:08;17.10;91.90
51215;DHT22;41093;47.444;19.134;2022-09-09T01:53:36;17.10;91.80
51215;DHT22;41093;47.444;19.134;2022-09-09T02:01:35;17.10;92.00
51215;DHT22;41093;47.444;19.134;2022-09-09T02:04:22;17.10;92.00
51215;DHT22;41093;47.444;19.134;2022-09-09T02:06:55;17.00;92.00
51215;DHT22;41093;47.444;19.134;2022-09-09T02:09:24;17.00;92.10
51215;DHT22;41093;47.444;19.134;2022-09-09T02:11:58;16.90;92.10
51215;DHT22;41093;47.444;19.134;2022-09-09T02:14:31;17.00;92.10
51215;DHT22;41093;47.444;19.134;2022-09-09T02:17:06;16.90;92.10
51215;DHT22;41093;47.444;19.134;2022-09-09T02:19:37;17.00;92.20
51215;DHT22;41093;47.444;19.134;2022-09-09T02:22:04;16.90;92.20
51215;DHT22;41093;47.444;19.134;2022-09-09T02:24:34;16.90;92.10
51215;DHT22;41093;47.444;19.134;2022-09-09T02:27:03;16.90;92.10
51215;DHT22;41093;47.444;19.134;2022-09-09T02:29:38;16.90;92.20
51215;DHT22;41093;47.444;19.134;2022-09-09T02:32:06;16.90;92.20
51215;DHT22;41093;47.444;19.134;2022-09-09T02:37:03;16.90;92.10
51215;DHT22;41093;47.444;19.134;2022-09-09T02:39:29;16.90;92.10
51215;DHT22;41093;47.444;19.134;2022-09-09T02:41:55;16.90;92.20
51215;DHT22;41093;47.444;19.134;2022-09-09T02:44:23;16.90;92.10
51215;DHT22;41093;47.444;19.134;2022-09-09T02:51:57;16.90;91.70
51215;DHT22;41093;47.444;19.134;2022-09-09T03:14:10;17.00;89.70
51215;DHT22;41093;47.444;19.134;2022-09-09T03:16:37;17.00;89.70
51215;DHT22;41093;47.444;19.134;2022-09-09T03:19:02;17.00;89.60
51215;DHT22;41093;47.444;19.134;2022-09-09T03:21:28;17.00;89.60
51215;DHT22;41093;47.444;19.134;2022-09-09T03:23:54;17.00;89.70
51215;DHT22;41093;47.444;19.134;2022-09-09T03:26:21;16.90;89.80
51215;DHT22;41093;47.444;19.134;2022-09-09T03:28:46;16.90;89.90
51215;DHT22;41093;47.444;19.134;2022-09-09T03:31:12;16.90;89.90
51215;DHT22;41093;47.444;19.134;2022-09-09T03:33:38;16.90;90.00
51215;DHT22;41093;47.444;19.134;2022-09-09T03:36:05;16.80;89.90
51215;DHT22;41093;47.444;19.134;2022-09-09T03:38:31;16.80;90.00
51215;DHT22;41093;47.444;19.134;2022-09-09T03:40:57;16.80;89.90
51215;DHT22;41093;47.444;19.134;2022-09-09T03:43:25;16.90;89.80
51215;DHT22;41093;47.444;19.134;2022-09-09T03:45:51;16.80;89.80
51215;DHT22;41093;47.444;19.134;2022-09-09T03:48:17;16.70;89.90
51215;DHT22;41093;47.444;19.134;2022-09-09T03:50:45;16.70;90.10
51215;DHT22;41093;47.444;19.134;2022-09-09T05:31:09;18.40;85.50
51215;DHT22;41093;47.444;19.134;2022-09-09T05:43:30;12.60;3306.40
51215;DHT22;41093;47.444;19.134;2022-09-09T05:46:08;25.70;58.40
51215;DHT22;41093;47.444;19.134;2022-09-09T05:48:39;27.80;50.60
51215;DHT22;41093;47.444;19.134;2022-09-09T05:51:08;28.40;50.00
51215;DHT22;41093;47.444;19.134;2022-09-09T05:53:35;28.80;48.30
51215;DHT22;41093;47.444;19.134;2022-09-09T05:56:16;29.60;44.30
51215;DHT22;41093;47.444;19.134;2022-09-09T05:58:46;30.60;43.50
51215;DHT22;41093;47.444;19.134;2022-09-09T06:01:17;30.80;41.60
51215;DHT22;41093;47.444;19.134;2022-09-09T06:03:44;31.40;42.00
51215;DHT22;41093;47.444;19.134;2022-09-09T06:06:13;32.20;39.40
51215;DHT22;41093;47.444;19.134;2022-09-09T06:08:42;33.00;38.70
51215;DHT22;41093;47.444;19.134;2022-09-09T06:11:14;33.50;36.50
51215;DHT22;41093;47.444;19.134;2022-09-09T06:13:41;31.70;39.50
51215;DHT22;41093;47.444;19.134;2022-09-09T06:16:09;30.20;42.60
51215;DHT22;41093;47.444;19.134;2022-09-09T06:18:37;28.70;44.80
51215;DHT22;41093;47.444;19.134;2022-09-09T06:21:05;27.80;47.20
51215;DHT22;41093;47.444;19.134;2022-09-09T06:23:33;26.80;50.30
51215;DHT22;41093;47.444;19.134;2022-09-09T06:26:11;26.50;51.00
51215;DHT22;41093;47.444;19.134;2022-09-09T06:28:37;26.20;51.10
51215;DHT22;41093;47.444;19.134;2022-09-09T06:31:08;25.90;52.60
51215;DHT22;41093;47.444;19.134;2022-09-09T06:33:35;25.80;53.40
51215;DHT22;41093;47.444;19.134;2022-09-09T06:36:05;25.90;53.90
51215;DHT22;41093;47.444;19.134;2022-09-09T06:38:31;27.60;49.10
51215;DHT22;41093;47.444;19.134;2022-09-09T06:40:59;27.50;48.30
51215;DHT22;41093;47.444;19.134;2022-09-09T06:43:26;28.10;46.40
51215;DHT22;41093;47.444;19.134;2022-09-09T06:45:58;29.10;46.30
51215;DHT22;41093;47.444;19.134;2022-09-09T06:48:24;29.50;43.40
51215;DHT22;41093;47.444;19.134;2022-09-09T06:51:08;29.70;43.20
51215;DHT22;41093;47.444;19.134;2022-09-09T06:53:35;30.30;42.90
51215;DHT22;41093;47.444;19.134;2022-09-09T06:56:23;30.20;42.20
51215;DHT22;41093;47.444;19.134;2022-09-09T06:58:49;29.50;43.40
51215;DHT22;41093;47.444;19.134;2022-09-09T07:01:18;28.50;44.80
51215;DHT22;41093;47.444;19.134;2022-09-09T07:03:49;29.50;43.60
51215;DHT22;41093;47.444;19.134;2022-09-09T07:06:27;30.10;42.80
51215;DHT22;41093;47.444;19.134;2022-09-09T07:08:55;30.60;40.70
51215;DHT22;41093;47.444;19.134;2022-09-09T07:11:23;30.90;40.60
51215;DHT22;41093;47.444;19.134;2022-09-09T07:13:49;31.20;40.70
51215;DHT22;41093;47.444;19.134;2022-09-09T07:16:19;31.60;38.50
51215;DHT22;41093;47.444;19.134;2022-09-09T07:18:46;30.20;39.90
51215;DHT22;41093;47.444;19.134;2022-09-09T07:21:13;29.20;42.90
51215;DHT22;41093;47.444;19.134;2022-09-09T07:23:40;28.00;45.20
51215;DHT22;41093;47.444;19.134;2022-09-09T07:26:18;27.60;46.00
51215;DHT22;41093;47.444;19.134;2022-09-09T07:28:47;27.70;46.60
51215;DHT22;41093;47.444;19.134;2022-09-09T07:31:19;30.80;41.80
51215;DHT22;41093;47.444;19.134;2022-09-09T07:33:46;33.50;37.80
51215;DHT22;41093;47.444;19.134;2022-09-09T07:36:21;35.20;33.20
51215;DHT22;41093;47.444;19.134;2022-09-09T07:38:50;34.90;33.30
51215;DHT22;41093;47.444;19.134;2022-09-09T07:41:25;36.20;32.10
51215;DHT22;41093;47.444;19.134;2022-09-09T07:43:52;36.90;30.80
51215;DHT22;41093;47.444;19.134;2022-09-09T07:46:21;38.10;29.10
51215;DHT22;41093;47.444;19.134;2022-09-09T07:48:52;38.70;27.80
51215;DHT22;41093;47.444;19.134;2022-09-09T07:51:34;38.00;28.10
51215;DHT22;41093;47.444;19.134;2022-09-09T07:54:02;39.70;26.20
51215;DHT22;41093;47.444;19.134;2022-09-09T07:56:30;40.10;25.80
51215;DHT22;41093;47.444;19.134;2022-09-09T07:58:57;40.70;25.60
51215;DHT22;41093;47.444;19.134;2022-09-09T08:01:31;41.00;25.40
51215;DHT22;41093;47.444;19.134;2022-09-09T08:03:59;41.10;25.60
51215;DHT22;41093;47.444;19.134;2022-09-09T08:06:32;41.30;23.80
51215;DHT22;41093;47.444;19.134;2022-09-09T08:09:02;40.60;24.30
51215;DHT22;41093;47.444;19.134;2022-09-09T08:11:29;41.40;23.80
51215;DHT22;41093;47.444;19.134;2022-09-09T08:13:55;41.00;24.80
51215;DHT22;41093;47.444;19.134;2022-09-09T08:16:27;40.80;24.70
51215;DHT22;41093;47.444;19.134;2022-09-09T08:18:53;41.50;24.30
51215;DHT22;41093;47.444;19.134;2022-09-09T08:21:28;40.00;24.90
51215;DHT22;41093;47.444;19.134;2022-09-09T08:23:54;40.60;24.20
51215;DHT22;41093;47.444;19.134;2022-09-09T08:26:29;41.60;23.90
51215;DHT22;41093;47.444;19.134;2022-09-09T08:28:57;40.40;24.90
51215;DHT22;41093;47.444;19.134;2022-09-09T08:31:25;41.50;24.70
51215;DHT22;41093;47.444;19.134;2022-09-09T08:33:53;41.50;23.90
51215;DHT22;41093;47.444;19.134;2022-09-09T08:36:21;39.60;26.00
51215;DHT22;41093;47.444;19.134;2022-09-09T08:38:50;40.00;25.50
51215;DHT22;41093;47.444;19.134;2022-09-09T08:41:29;41.40;23.50
51215;DHT22;41093;47.444;19.134;2022-09-09T08:44:19;40.30;24.30
51215;DHT22;41093;47.444;19.134;2022-09-09T08:47:00;42.10;23.10
51215;DHT22;41093;47.444;19.134;2022-09-09T08:49:44;38.80;25.80
51215;DHT22;41093;47.444;19.134;2022-09-09T08:52:28;39.10;25.10
51215;DHT22;41093;47.444;19.134;2022-09-09T08:55:03;40.10;23.50
51215;DHT22;41093;47.444;19.134;2022-09-09T08:57:31;40.10;23.80
51215;DHT22;41093;47.444;19.134;2022-09-09T08:59:58;41.70;22.20
51215;DHT22;41093;47.444;19.134;2022-09-09T09:02:42;42.20;22.10
51215;DHT22;41093;47.444;19.134;2022-09-09T09:05:19;42.40;21.30
51215;DHT22;41093;47.444;19.134;2022-09-09T09:07:55;42.50;21.90
51215;DHT22;41093;47.444;19.134;2022-09-09T09:13:21;42.90;20.60
51215;DHT22;41093;47.444;19.134;2022-09-09T09:16:02;41.80;21.80
51215;DHT22;41093;47.444;19.134;2022-09-09T09:18:30;43.20;21.80
51215;DHT22;41093;47.444;19.134;2022-09-09T09:21:23;40.90;23.10
51215;DHT22;41093;47.444;19.134;2022-09-09T09:23:56;42.10;22.50
51215;DHT22;41093;47.444;19.134;2022-09-09T09:26:29;42.60;21.80
51215;DHT22;41093;47.444;19.134;2022-09-09T09:28:56;43.30;20.80
51215;DHT22;41093;47.444;19.134;2022-09-09T09:31:24;43.60;21.40
51215;DHT22;41093;47.444;19.134;2022-09-09T09:33:54;43.50;21.00
51215;DHT22;41093;47.444;19.134;2022-09-09T09:36:24;41.90;21.90
51215;DHT22;41093;47.444;19.134;2022-09-09T09:39:01;42.20;20.70
51215;DHT22;41093;47.444;19.134;2022-09-09T09:41:39;41.10;23.30
51215;DHT22;41093;47.444;19.134;2022-09-09T09:44:20;41.30;22.90
51215;DHT22;41093;47.444;19.134;2022-09-09T09:46:47;41.80;20.80
51215;DHT22;41093;47.444;19.134;2022-09-09T09:49:13;40.50;23.00
51215;DHT22;41093;47.444;19.134;2022-09-09T09:51:39;41.20;23.20
51215;DHT22;41093;47.444;19.134;2022-09-09T09:56:43;41.60;20.90
51215;DHT22;41093;47.444;19.134;2022-09-09T10:01:54;42.50;20.20
51215;DHT22;41093;47.444;19.134;2022-09-09T10:04:23;42.40;20.10
51215;DHT22;41093;47.444;19.134;2022-09-09T10:06:50;42.00;21.30
51215;DHT22;41093;47.444;19.134;2022-09-09T10:09:23;41.60;21.80
51215;DHT22;41093;47.444;19.134;2022-09-09T10:12:14;41.50;20.70
51215;DHT22;41093;47.444;19.134;2022-09-09T10:23:56;38.80;24.00
51215;DHT22;41093;47.444;19.134;2022-09-09T10:26:59;39.60;22.90
51215;DHT22;41093;47.444;19.134;2022-09-09T10:35:30;40.50;22.20
51215;DHT22;41093;47.444;19.134;2022-09-09T10:38:13;39.90;23.10
51215;DHT22;41093;47.444;19.134;2022-09-09T10:52:25;38.60;25.40
51215;DHT22;41093;47.444;19.134;2022-09-09T10:55:11;37.10;25.20
51215;DHT22;41093;47.444;19.134;2022-09-09T10:57:45;36.40;25.90
51215;DHT22;41093;47.444;19.134;2022-09-09T11:00:22;36.40;25.70
51215;DHT22;41093;47.444;19.134;2022-09-09T11:02:56;35.30;28.40
51215;DHT22;41093;47.444;19.134;2022-09-09T11:05:41;33.40;30.10
51215;DHT22;41093;47.444;19.134;2022-09-09T11:08:29;33.00;31.60
51215;DHT22;41093;47.444;19.134;2022-09-09T11:11:02;32.20;32.80
51215;DHT22;41093;47.444;19.134;2022-09-09T11:16:42;31.60;32.50
51215;DHT22;41093;47.444;19.134;2022-09-09T11:19:22;30.90;33.70
51215;DHT22;41093;47.444;19.134;2022-09-09T11:21:51;30.30;34.50
51215;DHT22;41093;47.444;19.134;2022-09-09T11:24:38;30.20;36.10
51215;DHT22;41093;47.444;19.134;2022-09-09T11:27:16;29.50;36.70
51215;DHT22;41093;47.444;19.134;2022-09-09T11:30:02;29.70;36.70
51215;DHT22;41093;47.444;19.134;2022-09-09T11:40:38;28.80;37.00
51215;DHT22;41093;47.444;19.134;2022-09-09T11:43:18;28.90;37.00
51215;DHT22;41093;47.444;19.134;2022-09-09T11:45:53;29.20;36.30
51215;DHT22;41093;47.444;19.134;2022-09-09T11:48:37;29.30;38.30
51215;DHT22;41093;47.444;19.134;2022-09-09T11:57:01;29.00;35.10
51215;DHT22;41093;47.444;19.134;2022-09-09T11:59:32;29.00;36.70
51215;DHT22;41093;47.444;19.134;2022-09-09T12:04:38;29.20;37.40
51215;DHT22;41093;47.444;19.134;2022-09-09T12:09:58;28.80;36.00
51215;DHT22;41093;47.444;19.134;2022-09-09T12:12:33;28.90;36.00
51215;DHT22;41093;47.444;19.134;2022-09-09T12:17:42;28.50;35.50
51215;DHT22;41093;47.444;19.134;2022-09-09T12:20:20;28.30;36.60
51215;DHT22;41093;47.444;19.134;2022-09-09T12:31:17;29.90;34.50
51215;DHT22;41093;47.444;19.134;2022-09-09T12:33:46;29.70;34.50
51215;DHT22;41093;47.444;19.134;2022-09-09T12:36:19;29.20;35.50
51215;DHT22;41093;47.444;19.134;2022-09-09T12:38:46;29.40;37.50
51215;DHT22;41093;47.444;19.134;2022-09-09T12:41:21;28.90;37.80
51215;DHT22;41093;47.444;19.134;2022-09-09T12:43:48;29.00;36.00
51215;DHT22;41093;47.444;19.134;2022-09-09T12:46:41;28.90;37.20
51215;DHT22;41093;47.444;19.134;2022-09-09T12:51:53;29.30;37.70
51215;DHT22;41093;47.444;19.134;2022-09-09T12:54:19;29.50;38.50
51215;DHT22;41093;47.444;19.134;2022-09-09T12:56:46;29.50;38.30
51215;DHT22;41093;47.444;19.134;2022-09-09T12:59:25;29.40;38.40
51215;DHT22;41093;47.444;19.134;2022-09-09T13:01:58;29.20;38.70
51215;DHT22;41093;47.444;19.134;2022-09-09T13:04:24;28.90;39.50
51215;DHT22;41093;47.444;19.134;2022-09-09T13:06:50;28.50;39.10
51215;DHT22;41093;47.444;19.134;2022-09-09T13:09:18;28.30;39.70
51215;DHT22;41093;47.444;19.134;2022-09-09T13:11:49;28.20;40.70
51215;DHT22;41093;47.444;19.134;2022-09-09T13:17:01;28.00;40.50
51215;DHT22;41093;47.444;19.134;2022-09-09T13:19:38;28.20;40.30
51215;DHT22;41093;47.444;19.134;2022-09-09T13:27:41;27.90;41.20
51215;DHT22;41093;47.444;19.134;2022-09-09T13:36:02;28.40;41.00
51215;DHT22;41093;47.444;19.134;2022-09-09T13:38:31;28.70;40.40
51215;DHT22;41093;47.444;19.134;2022-09-09T13:41:03;28.70;38.90
51215;DHT22;41093;47.444;19.134;2022-09-09T13:43:46;28.70;39.00
51215;DHT22;41093;47.444;19.134;2022-09-09T13:46:44;28.70;39.20
51215;DHT22;41093;47.444;19.134;2022-09-09T13:54:10;28.80;38.50
51215;DHT22;41093;47.444;19.134;2022-09-09T13:56:38;28.80;38.60
51215;DHT22;41093;47.444;19.134;2022-09-09T13:59:05;28.70;38.70
51215;DHT22;41093;47.444;19.134;2022-09-09T14:01:32;29.00;38.70
51215;DHT22;41093;47.444;19.134;2022-09-09T14:04:00;29.00;38.30
51215;DHT22;41093;47.444;19.134;2022-09-09T14:06:26;29.00;36.00
51215;DHT22;41093;47.444;19.134;2022-09-09T14:08:53;28.80;36.40
51215;DHT22;41093;47.444;19.134;2022-09-09T14:11:20;28.90;36.90
51215;DHT22;41093;47.444;19.134;2022-09-09T14:13:47;28.60;37.30
51215;DHT22;41093;47.444;19.134;2022-09-09T14:16:16;28.00;37.60
51215;DHT22;41093;47.444;19.134;2022-09-09T14:18:46;27.40;39.00
51215;DHT22;41093;47.444;19.134;2022-09-09T14:21:12;27.40;39.50
51215;DHT22;41093;47.444;19.134;2022-09-09T14:23:38;27.30;37.30
51215;DHT22;41093;47.444;19.134;2022-09-09T14:26:07;27.50;39.10
51215;DHT22;41093;47.444;19.134;2022-09-09T14:28:34;27.50;37.40
51215;DHT22;41093;47.444;19.134;2022-09-09T14:31:01;27.60;37.90
51215;DHT22;41093;47.444;19.134;2022-09-09T14:33:27;27.50;40.20
51215;DHT22;41093;47.444;19.134;2022-09-09T14:35:59;27.60;39.60
51215;DHT22;41093;47.444;19.134;2022-09-09T14:38:29;27.70;38.70
51215;DHT22;41093;47.444;19.134;2022-09-09T14:40:55;27.50;38.00
51215;DHT22;41093;47.444;19.134;2022-09-09T14:43:21;27.40;38.90
51215;DHT22;41093;47.444;19.134;2022-09-09T14:45:47;27.20;38.70
51215;DHT22;41093;47.444;19.134;2022-09-09T14:48:14;27.00;39.60
51215;DHT22;41093;47.444;19.134;2022-09-09T14:50:41;27.10;39.80
51215;DHT22;41093;47.444;19.134;2022-09-09T14:53:07;27.10;40.30
51215;DHT22;41093;47.444;19.134;2022-09-09T14:55:34;27.10;41.00
51215;DHT22;41093;47.444;19.134;2022-09-09T14:58:00;27.10;42.10
51215;DHT22;41093;47.444;19.134;2022-09-09T15:00:26;27.20;40.60
51215;DHT22;41093;47.444;19.134;2022-09-09T15:02:55;27.40;41.20
51215;DHT22;41093;47.444;19.134;2022-09-09T15:05:22;27.20;39.20
51215;DHT22;41093;47.444;19.134;2022-09-09T15:07:48;27.20;40.90
51215;DHT22;41093;47.444;19.134;2022-09-09T15:10:14;27.30;39.60
51215;DHT22;41093;47.444;19.134;2022-09-09T15:12:40;27.20;38.70
51215;DHT22;41093;47.444;19.134;2022-09-09T15:15:08;27.20;39.80
51215;DHT22;41093;47.444;19.134;2022-09-09T15:17:34;27.20;38.10
51215;DHT22;41093;47.444;19.134;2022-09-09T15:20:03;27.20;40.00
51215;DHT22;41093;47.444;19.134;2022-09-09T15:22:31;27.30;40.30
51215;DHT22;41093;47.444;19.134;2022-09-09T15:24:57;27.00;40.90
51215;DHT22;41093;47.444;19.134;2022-09-09T15:27:23;27.10;41.80
51215;DHT22;41093;47.444;19.134;2022-09-09T15:29:49;27.10;40.80
51215;DHT22;41093;47.444;19.134;2022-09-09T15:32:17;27.20;40.90
51215;DHT22;41093;47.444;19.134;2022-09-09T15:34:43;27.10;39.30
51215;DHT22;41093;47.444;19.134;2022-09-09T15:37:12;27.10;39.40
51215;DHT22;41093;47.444;19.134;2022-09-09T15:39:39;26.70;39.90
51215;DHT22;41093;47.444;19.134;2022-09-09T15:42:07;26.50;39.70
51215;DHT22;41093;47.444;19.134;2022-09-09T15:44:43;26.30;39.80
51215;DHT22;41093;47.444;19.134;2022-09-09T15:47:11;26.20;40.40
51215;DHT22;41093;47.444;19.134;2022-09-09T15:49:38;26.00;41.30
51215;DHT22;41093;47.444;19.134;2022-09-09T15:52:04;25.90;43.00
51215;DHT22;41093;47.444;19.134;2022-09-09T15:54:33;25.90;45.00
51215;DHT22;41093;47.444;19.134;2022-09-09T15:57:02;25.60;43.20
51215;DHT22;41093;47.444;19.134;2022-09-09T15:59:30;25.50;43.40
51215;DHT22;41093;47.444;19.134;2022-09-09T16:01:57;25.40;43.30
51215;DHT22;41093;47.444;19.134;2022-09-09T16:04:23;25.50;43.00
51215;DHT22;41093;47.444;19.134;2022-09-09T16:07:02;25.40;44.50
51215;DHT22;41093;47.444;19.134;2022-09-09T16:09:29;25.40;43.40
51215;DHT22;41093;47.444;19.134;2022-09-09T16:12:02;25.40;43.80
51215;DHT22;41093;47.444;19.134;2022-09-09T16:14:33;25.40;44.20
51215;DHT22;41093;47.444;19.134;2022-09-09T16:17:05;25.40;45.30
51215;DHT22;41093;47.444;19.134;2022-09-09T16:19:33;25.30;46.30
51215;DHT22;41093;47.444;19.134;2022-09-09T16:22:00;25.30;49.50
51215;DHT22;41093;47.444;19.134;2022-09-09T16:24:26;25.10;48.00
51215;DHT22;41093;47.444;19.134;2022-09-09T16:26:53;25.00;47.80
51215;DHT22;41093;47.444;19.134;2022-09-09T16:29:22;25.00;48.10
51215;DHT22;41093;47.444;19.134;2022-09-09T16:31:49;24.90;49.50
51215;DHT22;41093;47.444;19.134;2022-09-09T16:34:16;24.80;48.60
51215;DHT22;41093;47.444;19.134;2022-09-09T16:36:43;24.80;48.40
51215;DHT22;41093;47.444;19.134;2022-09-09T16:39:12;24.70;50.40
51215;DHT22;41093;47.444;19.134;2022-09-09T16:41:39;24.60;51.90
51215;DHT22;41093;47.444;19.134;2022-09-09T16:44:07;24.40;52.60
51215;DHT22;41093;47.444;19.134;2022-09-09T16:46:39;24.30;52.50
51215;DHT22;41093;47.444;19.134;2022-09-09T16:49:08;24.20;54.00
51215;DHT22;41093;47.444;19.134;2022-09-09T16:51:39;24.00;53.90
51215;DHT22;41093;47.444;19.134;2022-09-09T16:54:07;23.90;53.60
51215;DHT22;41093;47.444;19.134;2022-09-09T16:56:38;23.60;55.20
51215;DHT22;41093;47.444;19.134;2022-09-09T16:59:09;23.40;57.10
51215;DHT22;41093;47.444;19.134;2022-09-09T17:01:37;23.30;57.10
51215;DHT22;41093;47.444;19.134;2022-09-09T17:04:12;23.00;57.80
51215;DHT22;41093;47.444;19.134;2022-09-09T17:06:39;22.90;57.70
51215;DHT22;41093;47.444;19.134;2022-09-09T17:09:09;22.60;59.00
51215;DHT22;41093;47.444;19.134;2022-09-09T17:11:37;22.50;59.60
51215;DHT22;41093;47.444;19.134;2022-09-09T17:14:04;22.30;59.50
51215;DHT22;41093;47.444;19.134;2022-09-09T17:16:32;22.20;60.90
51215;DHT22;41093;47.444;19.134;2022-09-09T17:19:00;22.00;61.50
51215;DHT22;41093;47.444;19.134;2022-09-09T17:21:28;21.90;62.00
51215;DHT22;41093;47.444;19.134;2022-09-09T17:23:55;21.80;63.00
51215;DHT22;41093;47.444;19.134;2022-09-09T17:26:24;21.70;63.40
51215;DHT22;41093;47.444;19.134;2022-09-09T17:28:52;21.60;64.40
51215;DHT22;41093;47.444;19.134;2022-09-09T17:31:19;21.50;65.40
51215;DHT22;41093;47.444;19.134;2022-09-09T17:33:49;21.40;65.20
51215;DHT22;41093;47.444;19.134;2022-09-09T17:36:22;21.30;65.30
51215;DHT22;41093;47.444;19.134;2022-09-09T17:38:48;21.10;66.00
51215;DHT22;41093;47.444;19.134;2022-09-09T17:43:42;21.00;67.70
51215;DHT22;41093;47.444;19.134;2022-09-09T17:46:18;20.90;68.30
51215;DHT22;41093;47.444;19.134;2022-09-09T17:48:51;20.80;69.30
51215;DHT22;41093;47.444;19.134;2022-09-09T17:51:21;20.80;69.20
51215;DHT22;41093;47.444;19.134;2022-09-09T17:53:51;20.70;69.80
51215;DHT22;41093;47.444;19.134;2022-09-09T17:56:19;20.70;70.40
51215;DHT22;41093;47.444;19.134;2022-09-09T17:58:46;20.70;70.80
51215;DHT22;41093;47.444;19.134;2022-09-09T18:01:15;20.70;70.70
51215;DHT22;41093;47.444;19.134;2022-09-09T18:03:42;20.70;71.10
51215;DHT22;41093;47.444;19.134;2022-09-09T18:06:11;20.70;71.00
51215;DHT22;41093;47.444;19.134;2022-09-09T18:08:52;20.70;71.30
51215;DHT22;41093;47.444;19.134;2022-09-09T18:11:20;20.70;71.60
51215;DHT22;41093;47.444;19.134;2022-09-09T18:13:51;20.70;70.70
51215;DHT22;41093;47.444;19.134;2022-09-09T18:16:17;20.80;68.90
51215;DHT22;41093;47.444;19.134;2022-09-09T18:18:44;20.90;67.50
51215;DHT22;41093;47.444;19.134;2022-09-09T18:21:10;20.90;69.70
51215;DHT22;41093;47.444;19.134;2022-09-09T18:23:41;21.00;71.00
51215;DHT22;41093;47.444;19.134;2022-09-09T18:26:15;21.00;69.20
51215;DHT22;41093;47.444;19.134;2022-09-09T18:28:42;21.10;69.70
51215;DHT22;41093;47.444;19.134;2022-09-09T18:31:10;21.10;70.50
51215;DHT22;41093;47.444;19.134;2022-09-09T18:33:38;21.10;69.20
51215;DHT22;41093;47.444;19.134;2022-09-09T18:36:13;21.10;70.40
51215;DHT22;41093;47.444;19.134;2022-09-09T18:38:40;21.10;71.00
51215;DHT22;41093;47.444;19.134;2022-09-09T18:41:14;21.10;70.10
51215;DHT22;41093;47.444;19.134;2022-09-09T18:43:41;21.10;69.50
51215;DHT22;41093;47.444;19.134;2022-09-09T18:46:07;21.10;69.30
51215;DHT22;41093;47.444;19.134;2022-09-09T18:48:33;21.10;71.60
51215;DHT22;41093;47.444;19.134;2022-09-09T18:51:08;21.10;70.50
51215;DHT22;41093;47.444;19.134;2022-09-09T18:53:35;21.00;70.80
51215;DHT22;41093;47.444;19.134;2022-09-09T18:56:03;21.00;70.50
51215;DHT22;41093;47.444;19.134;2022-09-09T18:58:31;21.00;71.00
51215;DHT22;41093;47.444;19.134;2022-09-09T19:00:57;20.90;70.90
51215;DHT22;41093;47.444;19.134;2022-09-09T19:03:24;20.90;71.40
51215;DHT22;41093;47.444;19.134;2022-09-09T19:05:50;20.90;71.30
51215;DHT22;41093;47.444;19.134;2022-09-09T19:08:19;20.80;71.10
51215;DHT22;41093;47.444;19.134;2022-09-09T19:10:46;20.80;71.80
51215;DHT22;41093;47.444;19.134;2022-09-09T19:13:13;20.60;71.40
51215;DHT22;41093;47.444;19.134;2022-09-09T19:15:40;20.40;71.00
51215;DHT22;41093;47.444;19.134;2022-09-09T19:18:07;20.40;71.90
51215;DHT22;41093;47.444;19.134;2022-09-09T19:20:35;20.30;72.90
51215;DHT22;41093;47.444;19.134;2022-09-09T19:23:01;20.20;73.70
51215;DHT22;41093;47.444;19.134;2022-09-09T19:25:27;20.40;69.30
51215;DHT22;41093;47.444;19.134;2022-09-09T19:27:54;20.50;67.40
51215;DHT22;41093;47.444;19.134;2022-09-09T19:30:20;20.90;65.70
51215;DHT22;41093;47.444;19.134;2022-09-09T19:32:46;20.90;65.70
51215;DHT22;41093;47.444;19.134;2022-09-09T19:35:12;21.00;65.40
51215;DHT22;41093;47.444;19.134;2022-09-09T19:37:38;21.00;66.20
51215;DHT22;41093;47.444;19.134;2022-09-09T19:40:04;21.10;67.20
51215;DHT22;41093;47.444;19.134;2022-09-09T19:42:32;21.20;68.30
51215;DHT22;41093;47.444;19.134;2022-09-09T19:44:58;21.20;69.50
51215;DHT22;41093;47.444;19.134;2022-09-09T19:47:24;21.30;70.70
51215;DHT22;41093;47.444;19.134;2022-09-09T19:49:50;21.30;71.40
51215;DHT22;41093;47.444;19.134;2022-09-09T19:52:16;21.30;72.20
51215;DHT22;41093;47.444;19.134;2022-09-09T19:54:43;21.30;72.70
51215;DHT22;41093;47.444;19.134;2022-09-09T19:57:09;21.40;73.70
51215;DHT22;41093;47.444;19.134;2022-09-09T19:59:35;21.40;74.40